Terminal Aerodrome Forecast
Issued by NWS

Home | Current Version | Previous Version | Text Only | Print | Product List | Glossary On
Versions: 1 2 3 4 5 6 7 8 9 10 11 12 13
000
FTAK31 PAJN 302300
TAFASI
TAF
PASI 302326Z 3100/3124 22009KT P6SM -SHRA BKN030 BKN050
      TEMPO 3100/3103 4SM -RA BR BKN020 OVC025
     FM310600 13005KT P6SM SCT025 OVC050
     FM311200 VRB03KT P6SM -SHRA BKN020 OVC040
     FM311900 12008KT P6SM -RA BKN030 OVC050=

USA.gov is the U.S. government's official web portal to all federal, state and local government web resources and services.